Time;durP1;ratioP1;P1;durP2;ratioP2;P2;SDS_P1;SDS_P2;PMS_P1;PMS_P2;Temp;Humidity;BMP_temperature;BMP_pressure;BME280_temperature;BME280_humidity;BME280_pressure;Samples;Min_cycle;Max_cycle;Signal;HPM_P1;HPM_P2
2022/10/24 00:02:14;;;;;;;36.17;27.58;;;17.90;97.90;;;;;;5045203;28;20052;-87
2022/10/24 00:04:40;;;;;;;41.22;27.63;;;17.90;97.80;;;;;;5048583;28;20047;-87
2022/10/24 00:07:06;;;;;;;39.83;27.80;;;17.90;97.70;;;;;;5050289;28;20388;-87
2022/10/24 00:09:33;;;;;;;36.75;27.48;;;18.00;97.70;;;;;;5050053;28;20036;-88
2022/10/24 00:11:59;;;;;;;37.83;29.30;;;18.00;97.80;;;;;;5038965;28;20405;-86
2022/10/24 00:14:25;;;;;;;34.88;29.10;;;18.00;97.80;;;;;;5043017;28;20044;-86
2022/10/24 00:16:51;;;;;;;41.17;28.83;;;17.90;97.80;;;;;;5039213;28;20037;-87
2022/10/24 00:19:18;;;;;;;39.10;31.25;;;17.90;97.90;;;;;;5050607;28;20040;-86
2022/10/24 00:21:44;;;;;;;36.90;29.45;;;18.00;97.90;;;;;;5063077;28;20025;-87
2022/10/24 00:24:10;;;;;;;35.20;29.27;;;18.00;97.90;;;;;;5051976;28;20040;-87
2022/10/24 00:26:36;;;;;;;34.20;30.42;;;18.00;97.90;;;;;;5035159;28;20540;-87
2022/10/24 00:29:03;;;;;;;34.65;29.50;;;18.00;97.90;;;;;;5045758;28;21418;-87
2022/10/24 00:31:29;;;;;;;42.70;31.02;;;17.90;97.80;;;;;;5048405;28;20040;-87
2022/10/24 00:33:58;;;;;;;31.58;28.58;;;18.10;97.80;;;;;;5033669;28;20029;-87
2022/10/24 00:36:24;;;;;;;39.92;29.40;;;18.00;97.70;;;;;;5055694;28;20478;-87
2022/10/24 00:38:51;;;;;;;37.92;29.73;;;18.10;97.70;;;;;;5050839;28;20568;-87
2022/10/24 00:41:19;;;;;;;31.33;28.02;;;18.00;97.80;;;;;;5034446;28;20028;-87
2022/10/24 00:43:45;;;;;;;40.47;29.73;;;18.00;97.80;;;;;;5037047;28;20029;-88
2022/10/24 00:46:12;;;;;;;36.10;28.25;;;18.00;97.80;;;;;;5015978;28;20042;-87
2022/10/24 00:48:39;;;;;;;39.47;30.15;;;18.00;97.80;;;;;;5035144;28;20029;-86
2022/10/24 00:51:28;;;;;;;36.47;29.67;;;18.00;97.90;;;;;;5052278;28;20081;-86
2022/10/24 00:53:59;;;;;;;36.22;30.80;;;18.00;97.90;;;;;;5024782;28;20025;-86
2022/10/24 00:56:27;;;;;;;36.05;30.63;;;18.00;97.90;;;;;;5021600;28;20497;-87
2022/10/24 00:58:53;;;;;;;36.47;30.65;;;18.00;97.80;;;;;;5031037;28;20497;-88
2022/10/24 01:01:19;;;;;;;35.50;27.60;;;18.00;97.70;;;;;;5031506;28;20037;-87
2022/10/24 01:03:45;;;;;;;35.97;29.42;;;18.00;97.60;;;;;;5049541;28;20485;-87
2022/10/24 01:06:42;;;;;;;38.47;27.45;;;18.00;97.60;;;;;;5053177;28;20048;-87
2022/10/24 01:09:33;;;;;;;31.95;25.45;;;17.90;97.60;;;;;;5052069;28;20037;-87
2022/10/24 01:12:20;;;;;;;34.42;23.05;;;17.90;97.50;;;;;;5047249;28;20033;-87
2022/10/24 01:15:07;;;;;;;32.97;23.42;;;17.90;97.50;;;;;;5052648;28;20037;-87
2022/10/24 01:17:59;;;;;;;29.38;20.98;;;17.90;97.50;;;;;;5071267;28;20047;-87
2022/10/24 01:20:48;;;;;;;30.45;20.10;;;17.90;97.30;;;;;;5034392;28;20044;-87
2022/10/24 01:23:14;;;;;;;29.73;19.98;;;17.90;97.30;;;;;;5061109;28;20021;-87
2022/10/24 01:25:56;;;;;;;25.23;19.88;;;17.90;97.20;;;;;;5065341;28;20047;-87
2022/10/24 01:29:09;;;;;;;26.88;19.80;;;17.90;97.30;;;;;;5071137;28;20041;-86
2022/10/24 01:31:50;;;;;;;28.65;18.67;;;17.90;97.10;;;;;;5068622;28;20032;-87
2022/10/24 01:34:29;;;;;;;25.73;18.48;;;17.90;97.00;;;;;;5070594;28;20033;-86
2022/10/24 01:37:15;;;;;;;26.70;17.83;;;17.80;97.00;;;;;;5051291;28;20040;-87
2022/10/24 01:39:44;;;;;;;27.48;19.88;;;17.90;96.90;;;;;;5043530;28;20037;-87
2022/10/24 01:42:10;;;;;;;30.35;19.45;;;17.90;96.90;;;;;;5043084;28;20048;-86
2022/10/24 01:44:41;;;;;;;34.97;20.38;;;17.90;97.00;;;;;;5055633;28;20047;-87
2022/10/24 01:47:15;;;;;;;27.83;19.15;;;17.90;96.90;;;;;;5046125;28;20040;-87
2022/10/24 01:49:48;;;;;;;31.58;19.60;;;17.90;96.90;;;;;;5054905;28;20029;-87
2022/10/24 01:52:15;;;;;;;29.75;19.25;;;17.90;96.80;;;;;;5066652;28;20036;-87
2022/10/24 01:54:41;;;;;;;22.95;19.65;;;17.90;96.80;;;;;;5039762;28;20033;-86
2022/10/24 01:57:07;;;;;;;31.52;18.83;;;17.90;96.70;;;;;;5048332;28;20040;-87
2022/10/24 01:59:33;;;;;;;27.33;23.70;;;17.90;96.70;;;;;;5051152;28;20036;-87
2022/10/24 02:02:19;;;;;;;28.67;18.52;;;18.00;96.50;;;;;;5068888;28;20032;-86
2022/10/24 02:04:56;;;;;;;30.02;17.77;;;17.90;96.40;;;;;;5067203;28;20049;-87
2022/10/24 02:07:22;;;;;;;32.47;19.20;;;17.90;96.40;;;;;;5064768;28;20029;-87
2022/10/24 02:09:52;;;;;;;24.80;18.60;;;17.90;96.40;;;;;;5052183;28;20051;-87
2022/10/24 02:12:18;;;;;;;30.23;19.27;;;17.90;96.50;;;;;;5035532;28;20040;-87
2022/10/24 02:14:49;;;;;;;32.88;18.85;;;17.90;96.40;;;;;;5035982;28;20287;-86
2022/10/24 02:17:15;;;;;;;29.80;18.55;;;17.90;96.40;;;;;;5032864;28;20401;-87
2022/10/24 02:19:41;;;;;;;28.88;19.70;;;17.90;96.30;;;;;;5033970;28;20044;-87
2022/10/24 02:22:14;;;;;;;31.02;18.50;;;17.90;96.30;;;;;;5046611;28;20386;-87
2022/10/24 02:25:00;;;;;;;27.63;18.98;;;17.90;96.30;;;;;;5068266;28;20052;-88
2022/10/24 02:27:54;;;;;;;27.10;19.13;;;17.90;96.40;;;;;;5049810;28;20060;-87
2022/10/24 02:30:21;;;;;;;30.35;16.88;;;17.90;96.30;;;;;;5038753;28;20048;-88
2022/10/24 02:32:55;;;;;;;29.33;18.48;;;17.90;96.40;;;;;;5049705;28;20037;-87
2022/10/24 02:35:26;;;;;;;32.42;18.27;;;17.90;96.50;;;;;;5050377;28;20040;-88
2022/10/24 02:37:54;;;;;;;36.50;18.55;;;17.90;96.40;;;;;;5052933;28;20040;-87
2022/10/24 02:40:20;;;;;;;30.52;17.33;;;17.80;96.20;;;;;;5054786;28;20040;-87
2022/10/24 02:42:47;;;;;;;30.65;18.02;;;17.80;96.00;;;;;;5052857;28;20032;-87
2022/10/24 02:45:14;;;;;;;25.80;16.92;;;17.80;95.90;;;;;;5037208;28;20430;-87
2022/10/24 02:47:40;;;;;;;24.95;17.00;;;17.80;95.90;;;;;;5041890;28;20032;-87
2022/10/24 02:50:06;;;;;;;28.42;17.35;;;17.80;96.00;;;;;;5069280;28;20043;-88
2022/10/24 02:52:33;;;;;;;27.08;17.02;;;17.80;95.80;;;;;;5054323;28;20036;-87
2022/10/24 02:54:59;;;;;;;34.40;17.02;;;17.80;95.60;;;;;;5049870;28;20045;-87
2022/10/24 02:57:25;;;;;;;27.35;16.50;;;17.80;95.70;;;;;;5064195;28;20043;-87
2022/10/24 02:59:52;;;;;;;35.03;17.38;;;17.70;95.70;;;;;;5069772;28;20036;-87
2022/10/24 03:02:18;;;;;;;35.70;17.65;;;17.70;95.80;;;;;;5035467;28;20039;-87
2022/10/24 03:04:45;;;;;;;25.92;17.20;;;17.60;95.80;;;;;;5070429;28;20037;-86
2022/10/24 03:07:11;;;;;;;32.70;17.08;;;17.70;95.70;;;;;;5048990;28;20032;-84
2022/10/24 03:09:37;;;;;;;27.33;17.35;;;17.70;95.70;;;;;;5063800;28;20028;-85
2022/10/24 03:12:03;;;;;;;28.48;17.92;;;17.70;95.70;;;;;;5054008;28;20032;-84
2022/10/24 03:14:29;;;;;;;38.58;18.67;;;17.70;95.70;;;;;;5067079;28;20033;-86
2022/10/24 03:16:55;;;;;;;31.05;18.35;;;17.70;95.90;;;;;;5033224;28;20029;-85
2022/10/24 03:19:21;;;;;;;32.33;18.33;;;17.70;96.00;;;;;;5066716;28;20029;-85
2022/10/24 03:21:47;;;;;;;30.05;17.95;;;17.60;96.20;;;;;;5052044;28;20051;-86
2022/10/24 03:24:14;;;;;;;27.45;18.48;;;17.50;96.40;;;;;;5068938;28;20048;-88
2022/10/24 03:26:40;;;;;;;27.10;18.38;;;17.50;96.70;;;;;;5066155;28;20531;-87
2022/10/24 03:29:06;;;;;;;34.17;19.50;;;17.50;96.70;;;;;;5060817;28;20029;-87
2022/10/24 03:31:32;;;;;;;29.90;19.25;;;17.50;96.80;;;;;;5051502;28;20039;-86
2022/10/24 03:33:58;;;;;;;33.50;20.42;;;17.50;96.90;;;;;;5048011;28;20037;-86
2022/10/24 03:36:24;;;;;;;31.77;19.80;;;17.50;96.80;;;;;;5052615;28;20028;-86
2022/10/24 03:38:50;;;;;;;26.15;18.98;;;17.60;96.80;;;;;;5070519;28;20036;-86
2022/10/24 03:41:16;;;;;;;28.08;20.20;;;17.60;96.80;;;;;;5069001;28;20041;-86
2022/10/24 03:43:42;;;;;;;27.48;20.30;;;17.60;96.80;;;;;;5071370;28;20378;-85
2022/10/24 03:46:09;;;;;;;33.20;20.92;;;17.60;96.70;;;;;;5069671;28;20047;-85
2022/10/24 03:48:35;;;;;;;40.25;23.15;;;17.60;96.70;;;;;;5051684;28;20032;-83
2022/10/24 03:51:01;;;;;;;27.92;25.08;;;17.50;96.70;;;;;;5049957;28;20478;-86
2022/10/24 03:53:27;;;;;;;37.85;26.67;;;17.50;96.80;;;;;;5045675;28;20465;-85
2022/10/24 03:55:55;;;;;;;36.58;29.02;;;17.40;96.90;;;;;;5033295;28;20045;-86
2022/10/24 03:58:22;;;;;;;35.08;31.00;;;17.40;96.90;;;;;;5046939;28;20035;-87
2022/10/24 04:00:48;;;;;;;39.83;34.13;;;17.40;97.00;;;;;;5052989;28;20036;-86
2022/10/24 04:03:14;;;;;;;41.13;35.80;;;17.40;97.00;;;;;;5070637;28;20040;-89
2022/10/24 04:05:40;;;;;;;50.92;37.63;;;17.40;97.10;;;;;;5054249;28;20060;-89
2022/10/24 04:08:06;;;;;;;43.30;38.63;;;17.40;97.20;;;;;;5072805;28;20054;-92
2022/10/24 04:10:32;;;;;;;42.72;38.50;;;17.40;97.20;;;;;;5051307;28;20052;-92
2022/10/24 04:12:58;;;;;;;45.17;40.70;;;17.30;97.30;;;;;;5046929;28;20115;-93
2022/10/24 04:15:24;;;;;;;45.33;41.17;;;17.30;97.40;;;;;;5063989;28;20037;-92
2022/10/24 04:17:51;;;;;;;44.15;40.08;;;17.30;97.40;;;;;;5039288;28;20045;-93
2022/10/24 04:20:19;;;;;;;47.65;42.83;;;17.30;97.40;;;;;;5055783;28;20028;-94
2022/10/24 04:22:45;;;;;;;46.35;41.83;;;17.30;97.50;;;;;;5041572;28;20409;-92
2022/10/24 04:25:12;;;;;;;45.97;41.58;;;17.30;97.50;;;;;;5072263;28;20057;-92
2022/10/24 04:27:39;;;;;;;55.70;46.10;;;17.30;97.40;;;;;;5057776;28;20049;-93
2022/10/24 04:30:07;;;;;;;49.85;45.67;;;17.30;97.50;;;;;;5075120;28;20028;-92
2022/10/24 04:32:33;;;;;;;52.78;47.97;;;17.30;97.50;;;;;;5059080;28;20025;-94
2022/10/24 04:35:00;;;;;;;52.55;48.17;;;17.20;97.60;;;;;;5055791;28;20040;-93
2022/10/24 04:37:26;;;;;;;55.33;50.50;;;17.20;97.60;;;;;;5055633;28;20029;-93
2022/10/24 04:39:53;;;;;;;56.28;51.47;;;17.20;97.70;;;;;;5055575;28;20096;-93
2022/10/24 04:42:21;;;;;;;56.08;51.03;;;17.20;97.60;;;;;;5074916;28;20043;-94
2022/10/24 04:44:47;;;;;;;56.72;51.92;;;17.20;97.70;;;;;;5048880;28;20040;-93
2022/10/24 04:47:13;;;;;;;57.38;51.85;;;17.20;97.80;;;;;;5055024;28;20029;-93
2022/10/24 04:49:39;;;;;;;62.60;55.97;;;17.20;97.70;;;;;;5065574;28;20092;-92
2022/10/24 04:52:05;;;;;;;61.83;56.42;;;17.10;97.70;;;;;;5075073;28;20084;-93
2022/10/24 04:54:31;;;;;;;62.67;56.80;;;17.10;97.70;;;;;;5038494;28;20037;-93
2022/10/24 04:56:57;;;;;;;64.40;58.53;;;17.20;97.70;;;;;;5054888;28;20044;-94
2022/10/24 04:59:23;;;;;;;59.97;54.58;;;17.20;97.70;;;;;;5070844;28;20025;-92
2022/10/24 05:01:49;;;;;;;58.15;52.55;;;17.10;97.80;;;;;;5058195;28;20037;-93
2022/10/24 05:04:15;;;;;;;53.75;48.60;;;17.10;97.90;;;;;;5074565;28;20032;-93
2022/10/24 05:06:41;;;;;;;58.58;53.05;;;17.10;97.90;;;;;;5058208;28;20157;-92
2022/10/24 05:09:08;;;;;;;58.55;53.40;;;17.10;98.00;;;;;;5058629;28;20032;-93
2022/10/24 05:11:34;;;;;;;57.35;51.45;;;17.10;98.20;;;;;;5074575;28;20036;-93
2022/10/24 05:14:00;;;;;;;53.78;48.72;;;17.00;98.20;;;;;;5038133;28;20045;-93
2022/10/24 05:16:26;;;;;;;53.42;48.08;;;17.10;98.30;;;;;;5039813;28;20043;-93
2022/10/24 05:18:52;;;;;;;53.63;48.28;;;17.10;98.30;;;;;;5055641;28;20052;-93
2022/10/24 05:21:18;;;;;;;52.60;47.13;;;17.10;98.30;;;;;;5075574;28;20465;-93
2022/10/24 05:23:44;;;;;;;46.88;42.05;;;17.10;98.30;;;;;;5074141;28;20044;-94
2022/10/24 05:26:10;;;;;;;46.33;41.63;;;17.10;98.30;;;;;;5057392;28;20417;-93
2022/10/24 05:28:36;;;;;;;41.83;37.55;;;17.10;98.30;;;;;;5037903;28;20041;-93
2022/10/24 05:31:03;;;;;;;42.88;36.63;;;17.20;98.30;;;;;;5021332;28;20044;-93
2022/10/24 05:33:29;;;;;;;39.92;35.40;;;17.20;98.30;;;;;;5063334;28;20033;-92
2022/10/24 05:35:55;;;;;;;39.10;34.28;;;17.30;98.20;;;;;;5074280;28;20037;-91
2022/10/24 05:38:22;;;;;;;31.95;23.08;;;17.20;98.20;;;;;;5041465;28;20032;-92
2022/10/24 05:40:50;;;;;;;30.75;23.25;;;17.20;98.30;;;;;;5037509;28;20033;-92
2022/10/24 05:43:16;;;;;;;32.60;22.60;;;17.10;98.40;;;;;;5065989;28;20024;-92
2022/10/24 05:45:42;;;;;;;34.47;20.73;;;17.20;98.40;;;;;;5072549;28;20040;-94
2022/10/24 05:48:09;;;;;;;30.45;19.98;;;17.10;98.50;;;;;;5074303;28;20035;-95
2022/10/24 05:50:35;;;;;;;30.58;19.92;;;17.00;98.70;;;;;;5057609;28;20500;-95
2022/10/24 05:53:01;;;;;;;33.33;19.50;;;17.10;98.70;;;;;;5040469;28;20485;-94
2022/10/24 05:55:29;;;;;;;30.25;19.75;;;17.10;98.40;;;;;;5072681;28;20039;-95
2022/10/24 05:57:55;;;;;;;36.35;19.58;;;17.20;98.40;;;;;;5057982;28;20032;-95
2022/10/24 06:00:22;;;;;;;38.42;19.65;;;17.10;98.40;;;;;;5069414;28;22308;-94
2022/10/24 06:02:48;;;;;;;30.67;18.48;;;17.20;98.30;;;;;;5054340;28;20498;-93
2022/10/24 06:05:14;;;;;;;31.60;18.80;;;17.10;98.30;;;;;;5073116;28;20047;-89
2022/10/24 06:07:43;;;;;;;29.05;18.63;;;17.20;98.30;;;;;;5038811;28;20032;-92
2022/10/24 06:10:09;;;;;;;29.90;20.08;;;17.10;98.20;;;;;;5036708;28;20048;-92
2022/10/24 06:12:36;;;;;;;31.45;19.20;;;17.10;98.30;;;;;;5046994;28;20037;-96
2022/10/24 06:15:03;;;;;;;30.42;18.45;;;17.10;98.30;;;;;;5051530;28;20036;-93
2022/10/24 06:17:29;;;;;;;29.27;18.45;;;17.10;98.20;;;;;;5058301;28;20036;-93
2022/10/24 06:19:55;;;;;;;29.00;18.45;;;17.00;98.40;;;;;;5064078;28;20036;-93
2022/10/24 06:22:26;;;;;;;29.65;18.45;;;16.90;98.60;;;;;;5080185;28;20049;-95
2022/10/24 06:24:52;;;;;;;33.95;18.65;;;17.00;98.60;;;;;;5088749;28;20397;-95
2022/10/24 06:27:18;;;;;;;25.27;17.90;;;17.00;98.40;;;;;;5050658;28;20044;-93
2022/10/24 06:29:45;;;;;;;30.17;18.17;;;17.10;98.20;;;;;;5079023;28;20025;-95
2022/10/24 06:32:11;;;;;;;28.65;18.85;;;17.20;98.20;;;;;;5040010;28;20629;-92
2022/10/24 06:34:37;;;;;;;31.50;17.85;;;17.20;98.20;;;;;;5069679;28;20024;-93
2022/10/24 06:37:03;;;;;;;34.60;19.40;;;17.10;98.30;;;;;;5079686;28;20035;-95
2022/10/24 06:47:09;;;;;;;24.88;19.05;;;17.00;98.50;;;;;;5022003;28;20045;-90
2022/10/24 06:49:35;;;;;;;24.40;20.77;;;17.10;98.40;;;;;;5018893;28;20079;-94
2022/10/24 06:52:01;;;;;;;30.70;19.92;;;17.00;98.50;;;;;;4991247;28;20049;-88
2022/10/24 06:54:28;;;;;;;26.45;19.85;;;17.00;98.50;;;;;;4981662;28;20521;-87
2022/10/24 06:56:54;;;;;;;30.45;19.25;;;17.10;98.30;;;;;;5014078;28;20030;-86
2022/10/24 06:59:21;;;;;;;30.85;19.75;;;17.10;98.30;;;;;;4993438;28;20041;-87
2022/10/24 07:01:47;;;;;;;32.92;20.15;;;17.10;98.50;;;;;;5000659;28;20471;-88
2022/10/24 07:06:48;;;;;;;25.38;20.63;;;17.10;98.50;;;;;;5027050;28;20411;-90
2022/10/24 07:09:14;;;;;;;27.35;21.23;;;17.10;98.60;;;;;;5010210;28;20037;-90
2022/10/24 07:11:41;;;;;;;28.85;25.02;;;17.10;98.80;;;;;;4994242;28;20026;-89
2022/10/24 07:14:08;;;;;;;29.83;21.10;;;17.10;99.80;;;;;;4980857;28;20210;-89
2022/10/24 07:16:35;;;;;;;26.15;23.17;;;17.10;99.70;;;;;;4971626;28;20046;-90
2022/10/24 07:19:01;;;;;;;30.05;21.98;;;17.10;99.80;;;;;;4956433;28;20039;-88
2022/10/24 07:21:29;;;;;;;33.83;20.50;;;17.20;99.90;;;;;;4975975;28;20053;-90
2022/10/24 07:23:55;;;;;;;35.60;21.67;;;17.20;99.70;;;;;;4990686;28;20042;-91
2022/10/24 07:26:22;;;;;;;33.25;21.75;;;17.20;99.80;;;;;;4975968;28;20050;-93
2022/10/24 07:28:52;;;;;;;96.60;89.85;;;17.30;99.90;;;;;;4959285;28;20039;-91
2022/10/24 07:31:22;;;;;;;30.15;20.35;;;17.30;99.70;;;;;;4981453;28;20037;-90
2022/10/24 07:33:49;;;;;;;36.83;25.05;;;17.40;99.80;;;;;;4998917;28;20042;-91
2022/10/24 07:36:19;;;;;;;28.42;22.73;;;17.50;99.60;;;;;;4995057;28;20030;-91
2022/10/24 07:38:48;;;;;;;29.23;21.97;;;17.60;98.90;;;;;;4999780;28;20038;-90
2022/10/24 07:41:14;;;;;;;30.55;23.23;;;17.80;98.70;;;;;;5000388;28;20280;-93
2022/10/24 07:43:41;;;;;;;29.92;26.58;;;17.90;98.40;;;;;;5000005;28;20045;-90
2022/10/24 07:46:08;;;;;;;25.25;22.58;;;17.90;98.30;;;;;;5016896;28;20068;-91
2022/10/24 07:48:34;;;;;;;28.77;21.02;;;18.10;98.20;;;;;;5005355;28;20048;-92
2022/10/24 07:51:07;;;;;;;29.48;23.95;;;18.30;97.80;;;;;;5022800;28;20100;-86
2022/10/24 07:53:33;;;;;;;25.23;21.48;;;18.40;97.80;;;;;;5022260;28;20033;-93
2022/10/24 07:56:00;;;;;;;28.35;19.30;;;18.70;97.80;;;;;;5019101;28;20037;-93
2022/10/24 07:58:26;;;;;;;26.10;19.88;;;18.90;97.50;;;;;;4999307;28;20099;-87
2022/10/24 08:00:52;;;;;;;24.25;20.08;;;19.20;96.60;;;;;;5034719;28;20402;-87
2022/10/24 08:03:18;;;;;;;26.02;20.98;;;19.30;96.10;;;;;;5017805;28;20488;-88
2022/10/24 08:05:44;;;;;;;21.92;18.92;;;19.40;95.70;;;;;;5014148;28;20050;-88
2022/10/24 08:08:10;;;;;;;24.58;19.92;;;19.40;95.80;;;;;;5015313;28;20029;-88
2022/10/24 08:10:37;;;;;;;26.70;18.83;;;19.50;95.50;;;;;;5015714;28;20034;-87
2022/10/24 08:13:03;;;;;;;23.55;18.33;;;19.50;95.50;;;;;;5014781;28;20033;-83
2022/10/24 08:15:29;;;;;;;26.85;19.80;;;19.40;95.70;;;;;;5013649;28;20034;-84
2022/10/24 08:17:55;;;;;;;30.25;18.00;;;19.40;95.60;;;;;;4996100;28;20053;-83
2022/10/24 08:20:24;;;;;;;28.77;19.63;;;19.40;95.60;;;;;;5012878;28;20038;-92
2022/10/24 08:22:51;;;;;;;25.58;19.80;;;19.30;95.60;;;;;;5027187;28;20026;-92
2022/10/24 08:25:18;;;;;;;23.80;17.98;;;19.20;95.60;;;;;;5006790;28;20038;-91
2022/10/24 08:27:44;;;;;;;27.63;20.10;;;19.10;96.00;;;;;;5022111;28;20390;-89
2022/10/24 08:30:10;;;;;;;25.73;19.55;;;19.00;96.10;;;;;;5013056;28;20037;-89
2022/10/24 08:32:37;;;;;;;24.70;21.48;;;19.00;96.10;;;;;;5041034;28;20030;-89
2022/10/24 08:35:04;;;;;;;24.38;21.15;;;18.90;96.20;;;;;;5005979;28;20030;-90
2022/10/24 08:37:30;;;;;;;25.20;17.92;;;18.90;96.40;;;;;;5020435;28;20033;-91
2022/10/24 08:39:56;;;;;;;29.92;19.17;;;18.90;96.70;;;;;;5038412;28;20041;-89
2022/10/24 08:42:23;;;;;;;29.27;20.33;;;18.90;96.80;;;;;;5021043;28;20038;-89
2022/10/24 08:44:49;;;;;;;29.73;20.08;;;19.00;96.80;;;;;;5004276;28;20075;-91
2022/10/24 08:47:35;;;;;;;28.65;20.08;;;19.00;96.70;;;;;;5022415;28;20042;-91
2022/10/24 08:50:20;;;;;;;27.58;20.25;;;19.10;96.40;;;;;;4997998;28;20510;-92
2022/10/24 08:52:55;;;;;;;25.23;17.65;;;19.20;96.30;;;;;;5022382;28;20478;-90
2022/10/24 08:55:24;;;;;;;24.05;19.23;;;19.20;95.90;;;;;;5005429;28;20060;-91
2022/10/24 08:57:51;;;;;;;26.73;19.67;;;19.10;95.90;;;;;;5021576;28;20037;-92
2022/10/24 09:00:23;;;;;;;24.77;20.35;;;19.10;96.00;;;;;;5017920;28;20025;-93
2022/10/24 09:03:01;;;;;;;28.10;20.98;;;19.00;95.80;;;;;;5016050;28;20049;-86
2022/10/24 09:05:40;;;;;;;21.23;19.02;;;18.80;96.00;;;;;;4998707;28;20046;-86
2022/10/24 09:08:21;;;;;;;26.08;20.13;;;18.70;96.30;;;;;;4997877;28;20034;-90
2022/10/24 09:10:55;;;;;;;25.83;19.38;;;18.70;96.40;;;;;;5002679;28;20475;-87
2022/10/24 09:13:22;;;;;;;24.60;20.08;;;18.70;96.50;;;;;;4988648;28;20034;-88
2022/10/24 09:15:48;;;;;;;22.73;19.45;;;18.60;96.40;;;;;;5014188;28;20411;-88
2022/10/24 09:18:25;;;;;;;27.75;25.35;;;18.60;96.50;;;;;;5013439;28;20030;-89
2022/10/24 09:20:51;;;;;;;21.50;18.88;;;18.70;97.00;;;;;;5014616;28;20018;-87
2022/10/24 09:23:18;;;;;;;25.35;18.92;;;18.80;96.60;;;;;;5013546;28;20049;-87
2022/10/24 09:25:48;;;;;;;23.88;18.83;;;18.80;96.30;;;;;;5014406;28;20052;-91
2022/10/24 09:28:14;;;;;;;24.05;19.65;;;18.90;96.20;;;;;;4996720;28;20050;-90
2022/10/24 09:30:40;;;;;;;22.27;19.35;;;18.90;96.20;;;;;;5012663;28;20153;-86
2022/10/24 09:33:26;;;;;;;26.42;21.00;;;18.90;96.00;;;;;;5013199;28;20026;-88
2022/10/24 09:35:54;;;;;;;27.80;19.73;;;19.00;96.00;;;;;;4982857;28;20159;-86
2022/10/24 09:38:24;;;;;;;27.38;18.45;;;19.00;96.10;;;;;;4993393;28;20038;-83
2022/10/24 09:40:52;;;;;;;21.67;16.90;;;19.10;95.90;;;;;;5011573;28;20033;-83
2022/10/24 09:43:38;;;;;;;22.02;17.85;;;19.20;96.00;;;;;;4995413;28;20038;-82
2022/10/24 09:46:17;;;;;;;26.50;18.02;;;19.30;95.90;;;;;;5010660;28;20050;-85
2022/10/24 09:49:02;;;;;;;22.15;18.52;;;19.40;95.90;;;;;;4995939;28;20390;-88
2022/10/24 09:51:32;;;;;;;23.45;20.98;;;19.60;95.80;;;;;;4997231;28;20022;-85
2022/10/24 09:54:06;;;;;;;26.50;19.83;;;19.70;95.20;;;;;;5008359;28;20026;-88
2022/10/24 09:56:37;;;;;;;23.05;19.17;;;19.70;95.70;;;;;;5008675;28;20049;-85
2022/10/24 09:59:40;;;;;;;25.25;19.83;;;19.70;95.80;;;;;;4995938;28;20045;-88
2022/10/24 10:02:27;;;;;;;25.05;18.58;;;19.50;95.70;;;;;;5000130;28;20026;-86
2022/10/24 10:05:16;;;;;;;32.83;28.40;;;19.40;96.30;;;;;;5014103;28;20054;-85
2022/10/24 10:07:47;;;;;;;27.52;22.30;;;19.30;98.60;;;;;;5014176;28;20045;-89
2022/10/24 10:10:28;;;;;;;28.55;26.15;;;19.00;99.00;;;;;;4996818;28;20045;-87
2022/10/24 10:13:02;;;;;;;23.33;21.30;;;18.40;99.30;;;;;;5012922;28;20033;-90
2022/10/24 10:15:34;;;;;;;25.27;23.73;;;17.90;99.60;;;;;;5005782;28;20037;-91
2022/10/24 10:18:24;;;;;;;23.65;21.83;;;17.80;99.90;;;;;;5001110;28;20212;-90
2022/10/24 10:20:57;;;;;;;21.33;19.70;;;17.70;99.80;;;;;;5003704;28;20049;-94
2022/10/24 10:23:24;;;;;;;23.15;20.90;;;17.60;99.90;;;;;;5016246;28;20228;-90
2022/10/24 10:26:26;;;;;;;21.25;19.30;;;17.60;99.90;;;;;;4999209;28;20367;-92
2022/10/24 10:28:54;;;;;;;20.98;19.20;;;17.70;99.90;;;;;;4959647;28;20046;-90
2022/10/24 10:31:31;;;;;;;23.20;21.25;;;17.70;99.90;;;;;;4941423;29;20027;-91
2022/10/24 10:34:19;;;;;;;28.38;25.60;;;17.70;99.90;;;;;;4960666;28;20526;-90
2022/10/24 10:36:57;;;;;;;31.73;28.52;;;17.80;99.90;;;;;;4960818;28;20404;-91
2022/10/24 10:39:31;;;;;;;33.83;31.25;;;17.90;99.90;;;;;;4959731;28;20043;-86
2022/10/24 10:42:04;;;;;;;40.78;37.40;;;18.00;99.90;;;;;;4935744;29;20047;-88
2022/10/24 10:44:42;;;;;;;35.03;31.90;;;18.10;99.90;;;;;;4937098;29;20046;-90
2022/10/24 10:47:34;;;;;;;43.15;39.65;;;18.10;99.90;;;;;;4969372;28;20054;-90
2022/10/24 10:50:00;;;;;;;49.47;45.67;;;18.20;99.90;;;;;;4972221;28;20079;-88
2022/10/24 10:52:31;;;;;;;42.13;38.78;;;18.40;99.90;;;;;;4970661;28;20521;-86
2022/10/24 10:55:16;;;;;;;33.60;30.67;;;18.40;99.90;;;;;;4956042;28;20042;-84
2022/10/24 10:57:53;;;;;;;39.35;35.08;;;18.60;99.90;;;;;;4966170;28;20031;-83
2022/10/24 11:00:45;;;;;;;32.95;29.50;;;18.70;99.90;;;;;;4967741;28;20046;-81
2022/10/24 11:03:29;;;;;;;26.90;24.27;;;18.80;99.90;;;;;;4967999;28;20400;-82
2022/10/24 11:06:09;;;;;;;30.02;26.98;;;18.90;99.90;;;;;;5007969;28;20044;-82
2022/10/24 11:08:53;;;;;;;28.45;26.13;;;18.70;99.90;;;;;;4991769;28;20050;-81
2022/10/24 11:11:36;;;;;;;30.85;28.02;;;18.60;99.90;;;;;;5011320;28;20037;-81
2022/10/24 11:14:27;;;;;;;27.55;24.45;;;18.60;99.90;;;;;;4993449;28;20049;-82
2022/10/24 11:16:55;;;;;;;29.20;23.90;;;18.50;99.90;;;;;;5009901;28;20034;-81
2022/10/24 11:19:31;;;;;;;26.80;24.25;;;18.40;99.90;;;;;;4993137;28;20069;-82
2022/10/24 11:21:57;;;;;;;24.45;21.42;;;18.40;99.90;;;;;;4959996;28;20476;-82
2022/10/24 11:24:23;;;;;;;24.98;22.70;;;18.40;99.90;;;;;;4992207;28;20025;-85
2022/10/24 11:26:52;;;;;;;30.85;23.48;;;18.40;99.90;;;;;;5009677;28;20056;-82
2022/10/24 11:29:41;;;;;;;22.48;20.33;;;18.40;99.90;;;;;;5011783;28;20026;-84
2022/10/24 11:32:19;;;;;;;25.30;23.13;;;18.40;99.90;;;;;;5009696;28;20038;-82
2022/10/24 11:35:08;;;;;;;28.55;22.40;;;18.50;99.90;;;;;;5011838;28;20040;-81
2022/10/24 11:37:39;;;;;;;23.83;21.75;;;18.60;99.90;;;;;;5003117;28;20042;-81
2022/10/24 11:40:08;;;;;;;24.23;21.70;;;18.70;99.90;;;;;;4992407;28;20049;-84
2022/10/24 11:42:56;;;;;;;24.40;21.80;;;18.80;99.90;;;;;;5010396;28;20030;-85
2022/10/24 11:45:26;;;;;;;25.10;22.88;;;18.90;99.90;;;;;;5010908;28;20030;-84
2022/10/24 11:48:13;;;;;;;21.45;19.23;;;19.00;99.90;;;;;;5009224;28;20434;-85
2022/10/24 11:50:54;;;;;;;19.35;17.73;;;19.10;99.90;;;;;;5009211;28;20482;-85
2022/10/24 11:53:33;;;;;;;21.52;19.65;;;19.20;99.20;;;;;;5010181;28;20026;-85
2022/10/24 11:56:05;;;;;;;22.13;20.42;;;19.30;99.30;;;;;;5010010;28;20021;-85
2022/10/24 11:58:32;;;;;;;22.60;20.67;;;19.40;99.00;;;;;;4999772;28;20045;-84
2022/10/24 12:01:29;;;;;;;19.42;17.73;;;19.50;98.30;;;;;;4977331;28;20037;-85
2022/10/24 12:04:20;;;;;;;22.35;20.45;;;19.60;97.30;;;;;;5010810;28;20042;-86
2022/10/24 12:07:01;;;;;;;20.98;19.48;;;19.60;97.40;;;;;;4991493;28;20041;-85
2022/10/24 12:09:30;;;;;;;;;;;19.70;97.50;;;;;;5011880;28;20029;-85
2022/10/24 12:12:29;;;;;;;21.63;18.27;;;19.70;96.70;;;;;;5010542;28;20274;-85
2022/10/24 12:15:13;;;;;;;18.20;16.58;;;19.60;96.50;;;;;;4990819;28;20030;-84
2022/10/24 12:18:19;;;;;;;20.58;18.63;;;19.60;96.80;;;;;;4977445;28;20111;-84
2022/10/24 12:20:45;;;;;;;21.42;19.73;;;19.80;96.70;;;;;;4996312;28;20056;-84
2022/10/24 12:23:19;;;;;;;23.05;21.15;;;19.90;96.70;;;;;;4992488;28;20482;-85
2022/10/24 12:25:47;;;;;;;21.98;20.20;;;20.00;96.30;;;;;;5010273;28;20364;-85
2022/10/24 12:28:21;;;;;;;23.08;20.92;;;20.10;96.10;;;;;;4993807;28;20073;-84
2022/10/24 12:31:15;;;;;;;24.23;22.27;;;20.20;96.90;;;;;;4992272;28;20041;-84
2022/10/24 12:33:41;;;;;;;22.80;20.88;;;20.40;95.60;;;;;;5008513;28;20487;-84
2022/10/24 12:36:08;;;;;;;23.10;21.20;;;20.40;95.40;;;;;;4997239;28;20487;-84
2022/10/24 12:38:34;;;;;;;27.83;25.77;;;20.40;94.60;;;;;;5012628;28;20037;-85
2022/10/24 12:41:08;;;;;;;26.80;24.88;;;20.50;94.40;;;;;;5011383;28;20052;-84
2022/10/24 12:43:44;;;;;;;23.63;22.00;;;20.60;94.20;;;;;;4997943;28;20064;-85
2022/10/24 12:46:13;;;;;;;23.90;21.90;;;20.60;94.10;;;;;;4986694;28;20506;-85
2022/10/24 12:48:42;;;;;;;23.40;21.45;;;20.50;93.90;;;;;;5012037;28;20052;-85
2022/10/24 12:51:23;;;;;;;20.45;18.73;;;20.50;94.50;;;;;;4996213;28;20030;-84
2022/10/24 12:54:04;;;;;;;22.50;20.42;;;20.50;95.00;;;;;;5013663;28;20038;-84
2022/10/24 12:56:32;;;;;;;23.45;21.40;;;20.60;94.90;;;;;;5013930;28;20034;-84
2022/10/24 12:58:59;;;;;;;21.55;19.65;;;20.60;94.80;;;;;;4995626;28;20037;-84